sensor_id;sensor_type;location;lat;lon;timestamp;P1;durP1;ratioP1;P2;durP2;ratioP2
36855;SDS011;22788;51.434;6.786;2023-04-16T00:01:48;29.17;;;14.43;;
36855;SDS011;22788;51.434;6.786;2023-04-16T00:04:14;25.83;;;14.20;;
36855;SDS011;22788;51.434;6.786;2023-04-16T00:06:39;22.07;;;13.70;;
36855;SDS011;22788;51.434;6.786;2023-04-16T00:09:05;22.50;;;13.23;;
36855;SDS011;22788;51.434;6.786;2023-04-16T00:11:31;24.57;;;14.60;;
36855;SDS011;22788;51.434;6.786;2023-04-16T00:13:58;24.43;;;12.83;;
36855;SDS011;22788;51.434;6.786;2023-04-16T00:16:23;26.33;;;15.03;;
36855;SDS011;22788;51.434;6.786;2023-04-16T00:18:49;26.07;;;14.70;;
36855;SDS011;22788;51.434;6.786;2023-04-16T00:21:14;20.97;;;13.63;;
36855;SDS011;22788;51.434;6.786;2023-04-16T00:23:40;22.20;;;12.97;;
36855;SDS011;22788;51.434;6.786;2023-04-16T00:26:07;23.97;;;13.70;;
36855;SDS011;22788;51.434;6.786;2023-04-16T00:28:32;22.87;;;13.17;;
36855;SDS011;22788;51.434;6.786;2023-04-16T00:31:00;22.80;;;12.70;;
36855;SDS011;22788;51.434;6.786;2023-04-16T00:33:25;21.73;;;13.07;;
36855;SDS011;22788;51.434;6.786;2023-04-16T00:35:51;20.63;;;11.50;;
36855;SDS011;22788;51.434;6.786;2023-04-16T00:38:16;21.07;;;11.70;;
36855;SDS011;22788;51.434;6.786;2023-04-16T00:40:42;22.97;;;12.20;;
36855;SDS011;22788;51.434;6.786;2023-04-16T00:43:08;21.20;;;11.67;;
36855;SDS011;22788;51.434;6.786;2023-04-16T00:45:33;22.83;;;12.10;;
36855;SDS011;22788;51.434;6.786;2023-04-16T00:48:01;21.47;;;11.43;;
36855;SDS011;22788;51.434;6.786;2023-04-16T00:50:27;23.83;;;11.83;;
36855;SDS011;22788;51.434;6.786;2023-04-16T00:52:53;18.17;;;12.20;;
36855;SDS011;22788;51.434;6.786;2023-04-16T00:55:20;20.60;;;11.07;;
36855;SDS011;22788;51.434;6.786;2023-04-16T00:57:46;20.60;;;12.70;;
36855;SDS011;22788;51.434;6.786;2023-04-16T01:00:12;22.87;;;13.23;;
36855;SDS011;22788;51.434;6.786;2023-04-16T01:02:38;25.03;;;13.97;;
36855;SDS011;22788;51.434;6.786;2023-04-16T01:05:05;24.40;;;12.83;;
36855;SDS011;22788;51.434;6.786;2023-04-16T01:07:31;24.23;;;15.17;;
36855;SDS011;22788;51.434;6.786;2023-04-16T01:09:56;25.20;;;13.03;;
36855;SDS011;22788;51.434;6.786;2023-04-16T01:12:22;28.73;;;16.90;;
36855;SDS011;22788;51.434;6.786;2023-04-16T01:14:48;25.83;;;15.00;;
36855;SDS011;22788;51.434;6.786;2023-04-16T01:17:14;20.67;;;12.83;;
36855;SDS011;22788;51.434;6.786;2023-04-16T01:19:39;23.73;;;13.90;;
36855;SDS011;22788;51.434;6.786;2023-04-16T01:22:06;27.33;;;14.83;;
36855;SDS011;22788;51.434;6.786;2023-04-16T01:24:32;25.43;;;14.40;;
36855;SDS011;22788;51.434;6.786;2023-04-16T01:26:58;21.33;;;12.80;;
36855;SDS011;22788;51.434;6.786;2023-04-16T01:29:24;26.10;;;13.63;;
36855;SDS011;22788;51.434;6.786;2023-04-16T01:31:50;21.57;;;12.73;;
36855;SDS011;22788;51.434;6.786;2023-04-16T01:34:17;25.27;;;14.47;;
36855;SDS011;22788;51.434;6.786;2023-04-16T01:36:42;24.57;;;13.63;;
36855;SDS011;22788;51.434;6.786;2023-04-16T01:39:09;28.53;;;15.83;;
36855;SDS011;22788;51.434;6.786;2023-04-16T01:41:35;24.87;;;15.20;;
36855;SDS011;22788;51.434;6.786;2023-04-16T01:44:01;30.37;;;17.17;;
36855;SDS011;22788;51.434;6.786;2023-04-16T01:46:27;30.03;;;18.33;;
36855;SDS011;22788;51.434;6.786;2023-04-16T01:48:54;37.27;;;18.83;;
36855;SDS011;22788;51.434;6.786;2023-04-16T01:51:20;29.20;;;15.93;;
36855;SDS011;22788;51.434;6.786;2023-04-16T01:53:46;28.17;;;15.40;;
36855;SDS011;22788;51.434;6.786;2023-04-16T01:56:13;35.37;;;17.93;;
36855;SDS011;22788;51.434;6.786;2023-04-16T01:58:39;30.70;;;16.73;;
36855;SDS011;22788;51.434;6.786;2023-04-16T02:01:04;37.30;;;17.93;;
36855;SDS011;22788;51.434;6.786;2023-04-16T02:03:30;30.43;;;17.50;;
36855;SDS011;22788;51.434;6.786;2023-04-16T02:05:56;30.47;;;16.33;;
36855;SDS011;22788;51.434;6.786;2023-04-16T02:08:21;28.43;;;16.07;;
36855;SDS011;22788;51.434;6.786;2023-04-16T02:10:48;30.70;;;15.43;;
36855;SDS011;22788;51.434;6.786;2023-04-16T02:13:15;38.13;;;18.27;;
36855;SDS011;22788;51.434;6.786;2023-04-16T02:15:43;31.27;;;15.60;;
36855;SDS011;22788;51.434;6.786;2023-04-16T02:18:09;31.07;;;15.87;;
36855;SDS011;22788;51.434;6.786;2023-04-16T02:20:34;31.43;;;16.20;;
36855;SDS011;22788;51.434;6.786;2023-04-16T02:23:04;33.00;;;16.70;;
36855;SDS011;22788;51.434;6.786;2023-04-16T02:25:29;31.37;;;15.63;;
36855;SDS011;22788;51.434;6.786;2023-04-16T02:27:55;34.80;;;17.37;;
36855;SDS011;22788;51.434;6.786;2023-04-16T02:30:22;32.00;;;17.20;;
36855;SDS011;22788;51.434;6.786;2023-04-16T02:32:47;36.70;;;17.83;;
36855;SDS011;22788;51.434;6.786;2023-04-16T02:35:13;32.03;;;17.50;;
36855;SDS011;22788;51.434;6.786;2023-04-16T02:37:39;31.80;;;16.80;;
36855;SDS011;22788;51.434;6.786;2023-04-16T02:40:05;34.07;;;15.97;;
36855;SDS011;22788;51.434;6.786;2023-04-16T02:42:31;32.40;;;15.07;;
36855;SDS011;22788;51.434;6.786;2023-04-16T02:44:57;32.97;;;15.10;;
36855;SDS011;22788;51.434;6.786;2023-04-16T02:47:24;29.70;;;14.90;;
36855;SDS011;22788;51.434;6.786;2023-04-16T02:49:49;33.17;;;14.87;;
36855;SDS011;22788;51.434;6.786;2023-04-16T02:52:15;28.73;;;13.97;;
36855;SDS011;22788;51.434;6.786;2023-04-16T02:54:40;34.13;;;15.00;;
36855;SDS011;22788;51.434;6.786;2023-04-16T02:57:06;28.30;;;14.53;;
36855;SDS011;22788;51.434;6.786;2023-04-16T02:59:32;31.40;;;15.67;;
36855;SDS011;22788;51.434;6.786;2023-04-16T03:01:57;29.93;;;15.73;;
36855;SDS011;22788;51.434;6.786;2023-04-16T03:04:24;32.13;;;15.37;;
36855;SDS011;22788;51.434;6.786;2023-04-16T03:06:50;33.07;;;16.00;;
36855;SDS011;22788;51.434;6.786;2023-04-16T03:09:15;32.10;;;15.73;;
36855;SDS011;22788;51.434;6.786;2023-04-16T03:11:41;28.23;;;15.00;;
36855;SDS011;22788;51.434;6.786;2023-04-16T03:14:07;32.00;;;14.40;;
36855;SDS011;22788;51.434;6.786;2023-04-16T03:16:32;30.80;;;15.67;;
36855;SDS011;22788;51.434;6.786;2023-04-16T03:18:58;29.80;;;14.97;;
36855;SDS011;22788;51.434;6.786;2023-04-16T03:21:25;28.20;;;13.87;;
36855;SDS011;22788;51.434;6.786;2023-04-16T03:23:50;28.93;;;14.17;;
36855;SDS011;22788;51.434;6.786;2023-04-16T03:26:16;27.90;;;14.50;;
36855;SDS011;22788;51.434;6.786;2023-04-16T03:28:42;24.63;;;14.33;;
36855;SDS011;22788;51.434;6.786;2023-04-16T03:31:07;23.67;;;13.10;;
36855;SDS011;22788;51.434;6.786;2023-04-16T03:33:33;30.33;;;15.67;;
36855;SDS011;22788;51.434;6.786;2023-04-16T03:35:58;24.97;;;13.37;;
36855;SDS011;22788;51.434;6.786;2023-04-16T03:38:25;29.90;;;15.47;;
36855;SDS011;22788;51.434;6.786;2023-04-16T03:40:51;28.33;;;13.80;;
36855;SDS011;22788;51.434;6.786;2023-04-16T03:43:16;26.27;;;13.27;;
36855;SDS011;22788;51.434;6.786;2023-04-16T03:45:42;29.97;;;14.43;;
36855;SDS011;22788;51.434;6.786;2023-04-16T03:48:08;30.23;;;14.73;;
36855;SDS011;22788;51.434;6.786;2023-04-16T03:50:34;29.33;;;14.23;;
36855;SDS011;22788;51.434;6.786;2023-04-16T03:52:59;33.50;;;14.53;;
36855;SDS011;22788;51.434;6.786;2023-04-16T03:55:26;28.33;;;13.47;;
36855;SDS011;22788;51.434;6.786;2023-04-16T03:57:52;23.57;;;12.50;;
36855;SDS011;22788;51.434;6.786;2023-04-16T04:00:18;32.27;;;13.97;;
36855;SDS011;22788;51.434;6.786;2023-04-16T04:02:44;29.00;;;15.30;;
36855;SDS011;22788;51.434;6.786;2023-04-16T04:05:09;29.23;;;15.40;;
36855;SDS011;22788;51.434;6.786;2023-04-16T04:07:35;32.43;;;15.53;;
36855;SDS011;22788;51.434;6.786;2023-04-16T04:10:00;34.03;;;15.73;;
36855;SDS011;22788;51.434;6.786;2023-04-16T04:12:27;30.77;;;16.10;;
36855;SDS011;22788;51.434;6.786;2023-04-16T04:14:53;33.40;;;16.30;;
36855;SDS011;22788;51.434;6.786;2023-04-16T04:17:18;25.17;;;14.40;;
36855;SDS011;22788;51.434;6.786;2023-04-16T04:19:44;27.87;;;14.23;;
36855;SDS011;22788;51.434;6.786;2023-04-16T04:22:10;29.67;;;16.33;;
36855;SDS011;22788;51.434;6.786;2023-04-16T04:24:35;35.20;;;16.17;;
36855;SDS011;22788;51.434;6.786;2023-04-16T04:27:01;38.30;;;19.77;;
36855;SDS011;22788;51.434;6.786;2023-04-16T04:29:28;38.47;;;18.23;;
36855;SDS011;22788;51.434;6.786;2023-04-16T04:31:53;43.27;;;19.30;;
36855;SDS011;22788;51.434;6.786;2023-04-16T04:34:19;38.10;;;19.33;;
36855;SDS011;22788;51.434;6.786;2023-04-16T04:36:44;39.13;;;18.60;;
36855;SDS011;22788;51.434;6.786;2023-04-16T04:39:10;34.30;;;17.53;;
36855;SDS011;22788;51.434;6.786;2023-04-16T04:41:36;35.13;;;17.87;;
36855;SDS011;22788;51.434;6.786;2023-04-16T04:44:01;35.87;;;17.57;;
36855;SDS011;22788;51.434;6.786;2023-04-16T04:46:28;34.67;;;17.13;;
36855;SDS011;22788;51.434;6.786;2023-04-16T04:48:54;38.73;;;17.07;;
36855;SDS011;22788;51.434;6.786;2023-04-16T04:51:19;36.33;;;18.50;;
36855;SDS011;22788;51.434;6.786;2023-04-16T04:53:45;33.03;;;18.57;;
36855;SDS011;22788;51.434;6.786;2023-04-16T04:56:11;34.40;;;16.30;;
36855;SDS011;22788;51.434;6.786;2023-04-16T04:58:36;37.27;;;16.50;;
36855;SDS011;22788;51.434;6.786;2023-04-16T05:01:02;30.00;;;15.93;;
36855;SDS011;22788;51.434;6.786;2023-04-16T05:03:29;28.97;;;15.23;;
36855;SDS011;22788;51.434;6.786;2023-04-16T05:05:54;33.57;;;14.97;;
36855;SDS011;22788;51.434;6.786;2023-04-16T05:08:20;27.50;;;15.07;;
36855;SDS011;22788;51.434;6.786;2023-04-16T05:10:46;28.93;;;16.23;;
36855;SDS011;22788;51.434;6.786;2023-04-16T05:13:11;32.50;;;16.40;;
36855;SDS011;22788;51.434;6.786;2023-04-16T05:15:37;33.23;;;16.00;;
36855;SDS011;22788;51.434;6.786;2023-04-16T05:18:03;33.43;;;15.97;;
36855;SDS011;22788;51.434;6.786;2023-04-16T05:20:30;30.07;;;16.20;;
36855;SDS011;22788;51.434;6.786;2023-04-16T05:22:55;27.60;;;14.67;;
36855;SDS011;22788;51.434;6.786;2023-04-16T05:25:21;26.93;;;15.30;;
36855;SDS011;22788;51.434;6.786;2023-04-16T05:27:46;30.83;;;15.67;;
36855;SDS011;22788;51.434;6.786;2023-04-16T05:30:12;32.00;;;15.17;;
36855;SDS011;22788;51.434;6.786;2023-04-16T05:32:38;30.20;;;14.97;;
36855;SDS011;22788;51.434;6.786;2023-04-16T05:35:04;25.30;;;13.90;;
36855;SDS011;22788;51.434;6.786;2023-04-16T05:37:31;26.03;;;13.37;;
36855;SDS011;22788;51.434;6.786;2023-04-16T05:39:57;27.33;;;14.90;;
36855;SDS011;22788;51.434;6.786;2023-04-16T05:42:22;23.27;;;13.47;;
36855;SDS011;22788;51.434;6.786;2023-04-16T05:44:49;26.17;;;14.87;;
36855;SDS011;22788;51.434;6.786;2023-04-16T05:47:15;26.57;;;13.37;;
36855;SDS011;22788;51.434;6.786;2023-04-16T05:49:40;29.17;;;14.63;;
36855;SDS011;22788;51.434;6.786;2023-04-16T05:52:06;27.73;;;13.83;;
36855;SDS011;22788;51.434;6.786;2023-04-16T05:54:33;24.50;;;12.57;;
36855;SDS011;22788;51.434;6.786;2023-04-16T05:56:58;23.93;;;12.13;;
36855;SDS011;22788;51.434;6.786;2023-04-16T05:59:24;24.93;;;13.13;;
36855;SDS011;22788;51.434;6.786;2023-04-16T06:01:50;24.77;;;13.27;;
36855;SDS011;22788;51.434;6.786;2023-04-16T06:04:15;28.03;;;14.47;;
36855;SDS011;22788;51.434;6.786;2023-04-16T06:06:41;28.00;;;14.33;;
36855;SDS011;22788;51.434;6.786;2023-04-16T06:09:07;21.87;;;13.07;;
36855;SDS011;22788;51.434;6.786;2023-04-16T06:11:34;29.83;;;14.90;;
36855;SDS011;22788;51.434;6.786;2023-04-16T06:13:59;30.43;;;14.90;;
36855;SDS011;22788;51.434;6.786;2023-04-16T06:16:25;28.63;;;14.20;;
36855;SDS011;22788;51.434;6.786;2023-04-16T06:18:50;27.43;;;15.07;;
36855;SDS011;22788;51.434;6.786;2023-04-16T06:21:16;28.57;;;15.70;;
36855;SDS011;22788;51.434;6.786;2023-04-16T06:23:42;23.40;;;13.47;;
36855;SDS011;22788;51.434;6.786;2023-04-16T06:26:07;24.80;;;12.23;;
36855;SDS011;22788;51.434;6.786;2023-04-16T06:28:34;26.80;;;13.97;;
36855;SDS011;22788;51.434;6.786;2023-04-16T06:31:00;30.67;;;15.20;;
36855;SDS011;22788;51.434;6.786;2023-04-16T06:33:26;24.87;;;14.70;;
36855;SDS011;22788;51.434;6.786;2023-04-16T06:35:51;23.97;;;13.33;;
36855;SDS011;22788;51.434;6.786;2023-04-16T06:38:17;27.60;;;13.93;;
36855;SDS011;22788;51.434;6.786;2023-04-16T06:40:42;29.90;;;14.30;;
36855;SDS011;22788;51.434;6.786;2023-04-16T06:43:08;27.30;;;14.57;;
36855;SDS011;22788;51.434;6.786;2023-04-16T06:45:35;21.87;;;13.07;;
36855;SDS011;22788;51.434;6.786;2023-04-16T06:48:01;27.27;;;14.90;;
36855;SDS011;22788;51.434;6.786;2023-04-16T06:50:26;25.37;;;15.33;;
36855;SDS011;22788;51.434;6.786;2023-04-16T06:52:52;21.67;;;12.50;;
36855;SDS011;22788;51.434;6.786;2023-04-16T06:55:18;29.43;;;15.37;;
36855;SDS011;22788;51.434;6.786;2023-04-16T06:57:43;23.80;;;14.03;;
36855;SDS011;22788;51.434;6.786;2023-04-16T07:00:09;25.03;;;15.10;;
36855;SDS011;22788;51.434;6.786;2023-04-16T07:02:37;25.73;;;14.77;;
36855;SDS011;22788;51.434;6.786;2023-04-16T07:05:03;23.70;;;14.53;;
36855;SDS011;22788;51.434;6.786;2023-04-16T07:07:29;28.93;;;15.37;;
36855;SDS011;22788;51.434;6.786;2023-04-16T07:09:54;27.87;;;14.90;;
36855;SDS011;22788;51.434;6.786;2023-04-16T07:12:20;28.90;;;15.83;;
36855;SDS011;22788;51.434;6.786;2023-04-16T07:14:46;25.80;;;15.30;;
36855;SDS011;22788;51.434;6.786;2023-04-16T07:17:11;28.60;;;15.90;;
36855;SDS011;22788;51.434;6.786;2023-04-16T07:19:38;29.33;;;15.70;;
36855;SDS011;22788;51.434;6.786;2023-04-16T07:22:04;29.40;;;14.43;;
36855;SDS011;22788;51.434;6.786;2023-04-16T07:24:29;26.20;;;15.00;;
36855;SDS011;22788;51.434;6.786;2023-04-16T07:26:55;26.93;;;14.70;;
36855;SDS011;22788;51.434;6.786;2023-04-16T07:29:21;22.33;;;13.30;;
36855;SDS011;22788;51.434;6.786;2023-04-16T07:31:46;24.67;;;17.20;;
36855;SDS011;22788;51.434;6.786;2023-04-16T07:34:12;28.43;;;16.20;;
36855;SDS011;22788;51.434;6.786;2023-04-16T07:36:39;29.50;;;16.23;;
36855;SDS011;22788;51.434;6.786;2023-04-16T07:39:05;25.17;;;15.13;;
36855;SDS011;22788;51.434;6.786;2023-04-16T07:41:31;27.03;;;16.33;;
36855;SDS011;22788;51.434;6.786;2023-04-16T07:43:56;28.63;;;15.63;;
36855;SDS011;22788;51.434;6.786;2023-04-16T07:46:22;24.63;;;14.90;;
36855;SDS011;22788;51.434;6.786;2023-04-16T07:48:48;27.70;;;16.43;;
36855;SDS011;22788;51.434;6.786;2023-04-16T07:51:13;27.80;;;15.53;;
36855;SDS011;22788;51.434;6.786;2023-04-16T07:53:40;31.53;;;17.43;;
36855;SDS011;22788;51.434;6.786;2023-04-16T07:56:06;28.17;;;16.13;;
36855;SDS011;22788;51.434;6.786;2023-04-16T07:58:32;27.37;;;16.33;;
36855;SDS011;22788;51.434;6.786;2023-04-16T08:00:58;28.33;;;16.13;;
36855;SDS011;22788;51.434;6.786;2023-04-16T08:03:23;28.93;;;15.77;;
36855;SDS011;22788;51.434;6.786;2023-04-16T08:05:49;23.80;;;15.53;;
36855;SDS011;22788;51.434;6.786;2023-04-16T08:08:15;28.00;;;17.03;;
36855;SDS011;22788;51.434;6.786;2023-04-16T08:10:41;25.10;;;16.23;;
36855;SDS011;22788;51.434;6.786;2023-04-16T08:13:07;28.43;;;16.23;;
36855;SDS011;22788;51.434;6.786;2023-04-16T08:15:33;26.37;;;14.87;;
36855;SDS011;22788;51.434;6.786;2023-04-16T08:17:58;26.97;;;15.60;;
36855;SDS011;22788;51.434;6.786;2023-04-16T08:20:24;29.73;;;15.97;;
36855;SDS011;22788;51.434;6.786;2023-04-16T08:22:50;26.63;;;16.60;;
36855;SDS011;22788;51.434;6.786;2023-04-16T08:25:17;29.40;;;16.50;;
36855;SDS011;22788;51.434;6.786;2023-04-16T08:27:44;27.30;;;16.27;;
36855;SDS011;22788;51.434;6.786;2023-04-16T08:30:10;29.43;;;17.33;;
36855;SDS011;22788;51.434;6.786;2023-04-16T08:32:36;26.83;;;16.20;;
36855;SDS011;22788;51.434;6.786;2023-04-16T08:35:02;31.23;;;17.47;;
36855;SDS011;22788;51.434;6.786;2023-04-16T08:37:28;28.23;;;17.13;;
36855;SDS011;22788;51.434;6.786;2023-04-16T08:39:53;29.10;;;17.50;;
36855;SDS011;22788;51.434;6.786;2023-04-16T08:42:20;25.67;;;16.30;;
36855;SDS011;22788;51.434;6.786;2023-04-16T08:44:52;22.73;;;15.73;;
36855;SDS011;22788;51.434;6.786;2023-04-16T08:47:27;26.77;;;16.57;;
36855;SDS011;22788;51.434;6.786;2023-04-16T08:49:55;29.63;;;16.63;;
36855;SDS011;22788;51.434;6.786;2023-04-16T08:52:22;24.10;;;15.50;;
36855;SDS011;22788;51.434;6.786;2023-04-16T08:54:51;23.40;;;15.67;;
36855;SDS011;22788;51.434;6.786;2023-04-16T08:57:25;31.27;;;17.83;;
36855;SDS011;22788;51.434;6.786;2023-04-16T09:00:10;26.03;;;16.23;;
36855;SDS011;22788;51.434;6.786;2023-04-16T09:02:37;25.53;;;16.17;;
36855;SDS011;22788;51.434;6.786;2023-04-16T09:05:04;22.87;;;14.77;;
36855;SDS011;22788;51.434;6.786;2023-04-16T09:07:33;27.00;;;15.90;;
36855;SDS011;22788;51.434;6.786;2023-04-16T09:10:00;27.87;;;15.60;;
36855;SDS011;22788;51.434;6.786;2023-04-16T09:12:26;27.93;;;16.13;;
36855;SDS011;22788;51.434;6.786;2023-04-16T09:14:53;22.17;;;15.30;;
36855;SDS011;22788;51.434;6.786;2023-04-16T09:17:22;24.50;;;15.17;;
36855;SDS011;22788;51.434;6.786;2023-04-16T09:19:48;27.20;;;17.37;;
36855;SDS011;22788;51.434;6.786;2023-04-16T09:22:13;28.63;;;16.10;;
36855;SDS011;22788;51.434;6.786;2023-04-16T09:24:39;24.40;;;14.93;;
36855;SDS011;22788;51.434;6.786;2023-04-16T09:27:04;27.17;;;15.97;;
36855;SDS011;22788;51.434;6.786;2023-04-16T09:29:32;28.57;;;15.27;;
36855;SDS011;22788;51.434;6.786;2023-04-16T09:32:00;24.40;;;16.57;;
36855;SDS011;22788;51.434;6.786;2023-04-16T09:34:28;27.90;;;16.40;;
36855;SDS011;22788;51.434;6.786;2023-04-16T09:36:55;24.93;;;15.90;;
36855;SDS011;22788;51.434;6.786;2023-04-16T09:39:37;23.23;;;14.10;;
36855;SDS011;22788;51.434;6.786;2023-04-16T09:42:04;27.97;;;16.57;;
36855;SDS011;22788;51.434;6.786;2023-04-16T09:44:33;20.97;;;14.23;;
36855;SDS011;22788;51.434;6.786;2023-04-16T09:46:59;23.20;;;15.27;;
36855;SDS011;22788;51.434;6.786;2023-04-16T09:49:32;27.40;;;14.57;;
36855;SDS011;22788;51.434;6.786;2023-04-16T09:51:58;25.57;;;15.80;;
36855;SDS011;22788;51.434;6.786;2023-04-16T09:54:24;24.33;;;14.23;;
36855;SDS011;22788;51.434;6.786;2023-04-16T09:56:50;23.03;;;15.50;;
36855;SDS011;22788;51.434;6.786;2023-04-16T09:59:20;19.53;;;12.97;;
36855;SDS011;22788;51.434;6.786;2023-04-16T10:01:46;21.20;;;13.47;;
36855;SDS011;22788;51.434;6.786;2023-04-16T10:04:12;22.47;;;14.17;;
36855;SDS011;22788;51.434;6.786;2023-04-16T10:06:39;20.53;;;13.47;;
36855;SDS011;22788;51.434;6.786;2023-04-16T10:09:05;20.57;;;12.90;;
36855;SDS011;22788;51.434;6.786;2023-04-16T10:11:32;22.57;;;14.17;;
36855;SDS011;22788;51.434;6.786;2023-04-16T10:13:58;20.43;;;13.53;;
36855;SDS011;22788;51.434;6.786;2023-04-16T10:16:23;23.53;;;14.07;;
36855;SDS011;22788;51.434;6.786;2023-04-16T10:18:49;23.63;;;14.77;;
36855;SDS011;22788;51.434;6.786;2023-04-16T10:21:15;22.40;;;15.33;;
36855;SDS011;22788;51.434;6.786;2023-04-16T10:23:42;24.57;;;15.60;;
36855;SDS011;22788;51.434;6.786;2023-04-16T10:26:08;23.33;;;14.93;;
36855;SDS011;22788;51.434;6.786;2023-04-16T10:28:34;23.80;;;14.87;;
36855;SDS011;22788;51.434;6.786;2023-04-16T10:31:01;23.37;;;15.10;;
36855;SDS011;22788;51.434;6.786;2023-04-16T10:33:28;26.47;;;16.43;;
36855;SDS011;22788;51.434;6.786;2023-04-16T10:36:09;26.57;;;14.73;;
36855;SDS011;22788;51.434;6.786;2023-04-16T10:38:36;25.60;;;15.10;;
36855;SDS011;22788;51.434;6.786;2023-04-16T10:41:05;26.77;;;14.93;;
36855;SDS011;22788;51.434;6.786;2023-04-16T10:43:32;22.90;;;14.77;;
36855;SDS011;22788;51.434;6.786;2023-04-16T10:46:18;21.73;;;13.87;;
36855;SDS011;22788;51.434;6.786;2023-04-16T10:48:45;23.27;;;13.10;;
36855;SDS011;22788;51.434;6.786;2023-04-16T10:51:22;23.00;;;13.73;;
36855;SDS011;22788;51.434;6.786;2023-04-16T10:53:48;20.70;;;13.93;;
36855;SDS011;22788;51.434;6.786;2023-04-16T10:56:21;20.83;;;14.77;;
36855;SDS011;22788;51.434;6.786;2023-04-16T10:58:47;19.20;;;13.87;;
36855;SDS011;22788;51.434;6.786;2023-04-16T11:01:13;18.90;;;12.50;;
36855;SDS011;22788;51.434;6.786;2023-04-16T11:03:45;18.97;;;12.53;;
36855;SDS011;22788;51.434;6.786;2023-04-16T11:06:11;22.43;;;13.83;;
36855;SDS011;22788;51.434;6.786;2023-04-16T11:08:39;18.03;;;12.47;;
36855;SDS011;22788;51.434;6.786;2023-04-16T11:11:04;17.30;;;13.43;;
36855;SDS011;22788;51.434;6.786;2023-04-16T11:13:31;19.97;;;12.10;;
36855;SDS011;22788;51.434;6.786;2023-04-16T11:15:59;18.67;;;12.93;;
36855;SDS011;22788;51.434;6.786;2023-04-16T11:18:25;20.53;;;13.77;;
36855;SDS011;22788;51.434;6.786;2023-04-16T11:20:51;19.03;;;12.40;;
36855;SDS011;22788;51.434;6.786;2023-04-16T11:23:17;16.43;;;11.80;;
36855;SDS011;22788;51.434;6.786;2023-04-16T11:25:43;16.93;;;12.47;;
36855;SDS011;22788;51.434;6.786;2023-04-16T11:28:09;21.47;;;13.07;;
36855;SDS011;22788;51.434;6.786;2023-04-16T11:30:37;18.90;;;11.87;;
36855;SDS011;22788;51.434;6.786;2023-04-16T11:33:03;18.23;;;12.20;;
36855;SDS011;22788;51.434;6.786;2023-04-16T11:35:29;16.23;;;11.10;;
36855;SDS011;22788;51.434;6.786;2023-04-16T11:37:55;21.57;;;12.37;;
36855;SDS011;22788;51.434;6.786;2023-04-16T11:40:22;17.93;;;11.97;;
36855;SDS011;22788;51.434;6.786;2023-04-16T11:42:47;16.43;;;11.90;;
36855;SDS011;22788;51.434;6.786;2023-04-16T11:45:13;17.27;;;11.90;;
36855;SDS011;22788;51.434;6.786;2023-04-16T11:47:44;17.60;;;12.17;;
36855;SDS011;22788;51.434;6.786;2023-04-16T11:50:15;18.47;;;11.40;;
36855;SDS011;22788;51.434;6.786;2023-04-16T11:52:45;19.40;;;12.57;;
36855;SDS011;22788;51.434;6.786;2023-04-16T11:55:10;17.87;;;12.17;;
36855;SDS011;22788;51.434;6.786;2023-04-16T11:57:36;19.17;;;11.73;;
36855;SDS011;22788;51.434;6.786;2023-04-16T12:00:02;20.63;;;12.00;;
36855;SDS011;22788;51.434;6.786;2023-04-16T12:02:34;17.53;;;12.00;;
36855;SDS011;22788;51.434;6.786;2023-04-16T12:05:03;16.17;;;10.73;;
36855;SDS011;22788;51.434;6.786;2023-04-16T12:07:30;17.53;;;11.40;;
36855;SDS011;22788;51.434;6.786;2023-04-16T12:10:03;19.53;;;11.50;;
36855;SDS011;22788;51.434;6.786;2023-04-16T12:12:30;17.60;;;12.07;;
36855;SDS011;22788;51.434;6.786;2023-04-16T12:14:56;16.57;;;11.80;;
36855;SDS011;22788;51.434;6.786;2023-04-16T12:17:22;18.07;;;10.87;;
36855;SDS011;22788;51.434;6.786;2023-04-16T12:19:49;13.47;;;9.93;;
36855;SDS011;22788;51.434;6.786;2023-04-16T12:22:17;15.53;;;11.27;;
36855;SDS011;22788;51.434;6.786;2023-04-16T12:24:53;14.97;;;10.37;;
36855;SDS011;22788;51.434;6.786;2023-04-16T12:27:20;15.20;;;9.70;;
36855;SDS011;22788;51.434;6.786;2023-04-16T12:30:01;15.80;;;10.73;;
36855;SDS011;22788;51.434;6.786;2023-04-16T12:32:27;15.07;;;10.73;;
36855;SDS011;22788;51.434;6.786;2023-04-16T12:34:52;15.00;;;11.03;;
36855;SDS011;22788;51.434;6.786;2023-04-16T12:37:20;16.20;;;11.73;;
36855;SDS011;22788;51.434;6.786;2023-04-16T12:39:45;13.63;;;10.60;;
36855;SDS011;22788;51.434;6.786;2023-04-16T12:42:11;15.70;;;11.00;;
36855;SDS011;22788;51.434;6.786;2023-04-16T12:44:36;18.53;;;10.97;;
36855;SDS011;22788;51.434;6.786;2023-04-16T12:47:02;16.37;;;11.57;;
36855;SDS011;22788;51.434;6.786;2023-04-16T12:49:28;14.93;;;11.30;;
36855;SDS011;22788;51.434;6.786;2023-04-16T12:51:53;16.60;;;11.13;;
36855;SDS011;22788;51.434;6.786;2023-04-16T12:54:20;16.97;;;11.97;;
36855;SDS011;22788;51.434;6.786;2023-04-16T12:56:46;15.43;;;10.70;;
36855;SDS011;22788;51.434;6.786;2023-04-16T12:59:12;18.63;;;11.70;;
36855;SDS011;22788;51.434;6.786;2023-04-16T13:01:37;18.47;;;11.50;;
36855;SDS011;22788;51.434;6.786;2023-04-16T13:04:03;18.40;;;11.60;;
36855;SDS011;22788;51.434;6.786;2023-04-16T13:06:28;19.97;;;11.77;;
36855;SDS011;22788;51.434;6.786;2023-04-16T13:08:54;19.23;;;13.23;;
36855;SDS011;22788;51.434;6.786;2023-04-16T13:11:22;20.83;;;13.20;;
36855;SDS011;22788;51.434;6.786;2023-04-16T13:13:47;17.10;;;12.23;;
36855;SDS011;22788;51.434;6.786;2023-04-16T13:16:13;15.07;;;10.60;;
36855;SDS011;22788;51.434;6.786;2023-04-16T13:18:38;19.77;;;12.47;;
36855;SDS011;22788;51.434;6.786;2023-04-16T13:21:04;19.77;;;13.30;;
36855;SDS011;22788;51.434;6.786;2023-04-16T13:23:30;15.67;;;11.77;;
36855;SDS011;22788;51.434;6.786;2023-04-16T13:25:55;18.50;;;11.83;;
36855;SDS011;22788;51.434;6.786;2023-04-16T13:28:22;17.00;;;12.87;;
36855;SDS011;22788;51.434;6.786;2023-04-16T13:30:48;18.97;;;12.50;;
36855;SDS011;22788;51.434;6.786;2023-04-16T13:33:14;19.27;;;12.20;;
36855;SDS011;22788;51.434;6.786;2023-04-16T13:35:39;17.80;;;12.80;;
36855;SDS011;22788;51.434;6.786;2023-04-16T13:38:05;16.47;;;12.80;;
36855;SDS011;22788;51.434;6.786;2023-04-16T13:40:31;20.60;;;12.90;;
36855;SDS011;22788;51.434;6.786;2023-04-16T13:42:56;18.77;;;12.77;;
36855;SDS011;22788;51.434;6.786;2023-04-16T13:45:23;18.47;;;12.43;;
36855;SDS011;22788;51.434;6.786;2023-04-16T13:47:49;17.20;;;11.60;;
36855;SDS011;22788;51.434;6.786;2023-04-16T13:50:14;16.80;;;11.63;;
36855;SDS011;22788;51.434;6.786;2023-04-16T13:52:40;17.43;;;12.10;;
36855;SDS011;22788;51.434;6.786;2023-04-16T13:55:06;18.17;;;12.97;;
36855;SDS011;22788;51.434;6.786;2023-04-16T13:57:32;16.60;;;12.00;;
36855;SDS011;22788;51.434;6.786;2023-04-16T13:59:58;16.17;;;11.77;;
36855;SDS011;22788;51.434;6.786;2023-04-16T14:02:25;17.43;;;12.77;;
36855;SDS011;22788;51.434;6.786;2023-04-16T14:04:50;17.00;;;12.43;;
36855;SDS011;22788;51.434;6.786;2023-04-16T14:07:16;16.23;;;12.13;;
36855;SDS011;22788;51.434;6.786;2023-04-16T14:09:42;15.40;;;11.97;;
36855;SDS011;22788;51.434;6.786;2023-04-16T14:12:07;17.63;;;12.13;;
36855;SDS011;22788;51.434;6.786;2023-04-16T14:14:33;16.87;;;12.67;;
36855;SDS011;22788;51.434;6.786;2023-04-16T14:16:59;15.70;;;12.10;;